sensor_id;sensor_type;location;lat;lon;timestamp;pressure;altitude;pressure_sealevel;temperature;humidity
16355;BME280;8287;51.644;8.494;2023-07-20T00:01:50;100121.00;;;18.42;94.21
16355;BME280;8287;51.644;8.494;2023-07-20T00:04:17;100120.31;;;18.45;93.97
16355;BME280;8287;51.644;8.494;2023-07-20T00:06:44;100119.84;;;18.40;94.13
16355;BME280;8287;51.644;8.494;2023-07-20T00:09:10;100124.16;;;18.48;93.85
16355;BME280;8287;51.644;8.494;2023-07-20T00:11:39;100119.97;;;18.50;93.08
16355;BME280;8287;51.644;8.494;2023-07-20T00:14:06;100111.97;;;18.54;92.96
16355;BME280;8287;51.644;8.494;2023-07-20T00:16:33;100110.03;;;18.51;93.38
16355;BME280;8287;51.644;8.494;2023-07-20T00:19:00;100119.22;;;18.50;94.75
16355;BME280;8287;51.644;8.494;2023-07-20T00:21:27;100110.78;;;18.51;93.48
16355;BME280;8287;51.644;8.494;2023-07-20T00:23:54;100116.22;;;18.55;93.57
16355;BME280;8287;51.644;8.494;2023-07-20T00:26:20;100117.03;;;18.59;93.48
16355;BME280;8287;51.644;8.494;2023-07-20T00:28:50;100113.97;;;18.57;92.34
16355;BME280;8287;51.644;8.494;2023-07-20T00:31:17;100125.22;;;18.66;91.22
16355;BME280;8287;51.644;8.494;2023-07-20T00:33:43;100117.84;;;18.63;91.50
16355;BME280;8287;51.644;8.494;2023-07-20T00:36:10;100119.41;;;18.64;92.61
16355;BME280;8287;51.644;8.494;2023-07-20T00:38:37;100119.41;;;18.64;92.80
16355;BME280;8287;51.644;8.494;2023-07-20T00:41:04;100120.25;;;18.68;92.87
16355;BME280;8287;51.644;8.494;2023-07-20T00:43:30;100121.31;;;18.63;94.00
16355;BME280;8287;51.644;8.494;2023-07-20T00:46:01;100120.94;;;18.65;95.17
16355;BME280;8287;51.644;8.494;2023-07-20T00:48:29;100120.25;;;18.68;95.51
16355;BME280;8287;51.644;8.494;2023-07-20T00:50:56;100120.59;;;18.66;94.93
16355;BME280;8287;51.644;8.494;2023-07-20T00:53:24;100113.00;;;18.72;93.53
16355;BME280;8287;51.644;8.494;2023-07-20T00:55:51;100116.56;;;18.79;92.90
16355;BME280;8287;51.644;8.494;2023-07-20T00:58:18;100111.97;;;18.80;93.86
16355;BME280;8287;51.644;8.494;2023-07-20T01:00:44;100114.66;;;18.80;93.73
16355;BME280;8287;51.644;8.494;2023-07-20T01:03:13;100116.56;;;18.79;93.75
16355;BME280;8287;51.644;8.494;2023-07-20T01:05:45;100115.88;;;18.86;93.44
16355;BME280;8287;51.644;8.494;2023-07-20T01:08:19;100115.09;;;18.85;93.50
16355;BME280;8287;51.644;8.494;2023-07-20T01:10:53;100110.13;;;18.84;93.48
16355;BME280;8287;51.644;8.494;2023-07-20T01:13:21;100116.25;;;18.84;94.04
16355;BME280;8287;51.644;8.494;2023-07-20T01:15:56;100121.16;;;18.79;93.86
16355;BME280;8287;51.644;8.494;2023-07-20T01:18:25;100119.19;;;18.76;94.02
16355;BME280;8287;51.644;8.494;2023-07-20T01:20:53;100112.59;;;18.70;93.34
16355;BME280;8287;51.644;8.494;2023-07-20T01:23:49;100103.31;;;18.64;93.38
16355;BME280;8287;51.644;8.494;2023-07-20T01:26:39;100110.53;;;18.60;94.13
16355;BME280;8287;51.644;8.494;2023-07-20T01:29:17;100105.56;;;18.62;92.89
16355;BME280;8287;51.644;8.494;2023-07-20T01:31:51;100108.66;;;18.64;93.70
16355;BME280;8287;51.644;8.494;2023-07-20T01:34:19;100103.25;;;18.60;93.18
16355;BME280;8287;51.644;8.494;2023-07-20T01:36:50;100110.50;;;18.56;93.38
16355;BME280;8287;51.644;8.494;2023-07-20T01:39:18;100103.94;;;18.54;94.04
16355;BME280;8287;51.644;8.494;2023-07-20T01:41:45;100106.38;;;18.62;93.53
16355;BME280;8287;51.644;8.494;2023-07-20T01:44:16;100100.94;;;18.59;93.19
16355;BME280;8287;51.644;8.494;2023-07-20T01:46:42;100102.50;;;18.60;94.02
16355;BME280;8287;51.644;8.494;2023-07-20T01:49:10;100104.72;;;18.54;94.86
16355;BME280;8287;51.644;8.494;2023-07-20T01:51:37;100104.97;;;18.46;95.28
16355;BME280;8287;51.644;8.494;2023-07-20T01:54:04;100102.28;;;18.46;96.57
16355;BME280;8287;51.644;8.494;2023-07-20T01:56:30;100108.88;;;18.52;95.98
16355;BME280;8287;51.644;8.494;2023-07-20T01:58:57;100104.66;;;18.51;96.15
16355;BME280;8287;51.644;8.494;2023-07-20T02:01:23;100108.09;;;18.51;96.53
16355;BME280;8287;51.644;8.494;2023-07-20T02:03:50;100101.69;;;18.59;95.68
16355;BME280;8287;51.644;8.494;2023-07-20T02:06:18;100098.06;;;18.45;96.22
16355;BME280;8287;51.644;8.494;2023-07-20T02:08:45;100095.06;;;18.50;96.68
16355;BME280;8287;51.644;8.494;2023-07-20T02:11:11;100091.34;;;18.58;95.74
16355;BME280;8287;51.644;8.494;2023-07-20T02:13:38;100085.59;;;18.59;95.47
16355;BME280;8287;51.644;8.494;2023-07-20T02:16:05;100087.63;;;18.66;94.36
16355;BME280;8287;51.644;8.494;2023-07-20T02:18:34;100094.84;;;18.62;95.79
16355;BME280;8287;51.644;8.494;2023-07-20T02:21:02;100095.69;;;18.66;94.85
16355;BME280;8287;51.644;8.494;2023-07-20T02:23:30;100091.03;;;18.63;95.16
16355;BME280;8287;51.644;8.494;2023-07-20T02:25:57;100085.97;;;18.58;96.23
16355;BME280;8287;51.644;8.494;2023-07-20T02:28:23;100087.13;;;18.57;96.63
16355;BME280;8287;51.644;8.494;2023-07-20T02:30:50;100092.06;;;18.55;97.32
16355;BME280;8287;51.644;8.494;2023-07-20T02:33:17;100088.66;;;18.58;96.24
16355;BME280;8287;51.644;8.494;2023-07-20T02:35:43;100091.06;;;18.66;95.58
16355;BME280;8287;51.644;8.494;2023-07-20T02:38:10;100084.06;;;18.58;95.64
16355;BME280;8287;51.644;8.494;2023-07-20T02:40:38;100091.75;;;18.60;96.53
16355;BME280;8287;51.644;8.494;2023-07-20T02:43:04;100087.88;;;18.57;96.67
16355;BME280;8287;51.644;8.494;2023-07-20T02:45:31;100092.56;;;18.64;96.53
16355;BME280;8287;51.644;8.494;2023-07-20T02:47:58;100087.16;;;18.60;96.86
16355;BME280;8287;51.644;8.494;2023-07-20T02:50:25;100092.91;;;18.59;97.08
16355;BME280;8287;51.644;8.494;2023-07-20T02:52:52;100087.00;;;18.50;97.44
16355;BME280;8287;51.644;8.494;2023-07-20T02:55:18;100085.94;;;18.54;97.89
16355;BME280;8287;51.644;8.494;2023-07-20T02:57:46;100095.56;;;18.59;97.79
16355;BME280;8287;51.644;8.494;2023-07-20T03:00:14;100098.38;;;18.66;96.36
16355;BME280;8287;51.644;8.494;2023-07-20T03:02:42;100085.69;;;18.66;96.85
16355;BME280;8287;51.644;8.494;2023-07-20T03:05:09;100083.81;;;18.67;95.51
16355;BME280;8287;51.644;8.494;2023-07-20T03:07:35;100091.84;;;18.67;95.42
16355;BME280;8287;51.644;8.494;2023-07-20T03:10:03;100089.53;;;18.65;96.09
16355;BME280;8287;51.644;8.494;2023-07-20T03:12:29;100083.69;;;18.60;96.75
16355;BME280;8287;51.644;8.494;2023-07-20T03:14:57;100087.19;;;18.64;96.35
16355;BME280;8287;51.644;8.494;2023-07-20T03:17:24;100091.91;;;18.70;95.33
16355;BME280;8287;51.644;8.494;2023-07-20T03:19:51;100090.72;;;18.68;95.00
16355;BME280;8287;51.644;8.494;2023-07-20T03:22:17;100091.06;;;18.66;95.92
16355;BME280;8287;51.644;8.494;2023-07-20T03:24:44;100093.00;;;18.66;95.75
16355;BME280;8287;51.644;8.494;2023-07-20T03:27:10;100089.81;;;18.60;96.38
16355;BME280;8287;51.644;8.494;2023-07-20T03:29:37;100092.22;;;18.65;96.08
16355;BME280;8287;51.644;8.494;2023-07-20T03:32:05;100096.50;;;18.70;95.38
16355;BME280;8287;51.644;8.494;2023-07-20T03:34:32;100092.56;;;18.64;96.17
16355;BME280;8287;51.644;8.494;2023-07-20T03:36:59;100095.56;;;18.59;96.72
16355;BME280;8287;51.644;8.494;2023-07-20T03:39:26;100091.69;;;18.56;97.13
16355;BME280;8287;51.644;8.494;2023-07-20T03:41:53;100093.66;;;18.59;96.87
16355;BME280;8287;51.644;8.494;2023-07-20T03:44:19;100091.41;;;18.65;95.63
16355;BME280;8287;51.644;8.494;2023-07-20T03:46:46;100097.13;;;18.60;97.02
16355;BME280;8287;51.644;8.494;2023-07-20T03:49:14;100098.66;;;18.61;97.01
16355;BME280;8287;51.644;8.494;2023-07-20T03:51:40;100090.31;;;18.66;96.33
16355;BME280;8287;51.644;8.494;2023-07-20T03:54:07;100088.78;;;18.68;96.44
16355;BME280;8287;51.644;8.494;2023-07-20T03:56:34;100089.69;;;18.76;94.75
16355;BME280;8287;51.644;8.494;2023-07-20T03:59:01;100097.69;;;18.72;95.48
16355;BME280;8287;51.644;8.494;2023-07-20T04:01:28;100094.63;;;18.74;95.28
16355;BME280;8287;51.644;8.494;2023-07-20T04:03:54;100097.00;;;18.79;94.20
16355;BME280;8287;51.644;8.494;2023-07-20T04:06:22;100098.19;;;18.81;94.07
16355;BME280;8287;51.644;8.494;2023-07-20T04:08:49;100106.22;;;18.81;93.98
16355;BME280;8287;51.644;8.494;2023-07-20T04:11:16;100101.66;;;18.82;93.20
16355;BME280;8287;51.644;8.494;2023-07-20T04:13:42;100108.13;;;18.81;93.78
16355;BME280;8287;51.644;8.494;2023-07-20T04:16:09;100112.78;;;18.84;94.01
16355;BME280;8287;51.644;8.494;2023-07-20T04:18:36;100100.47;;;18.79;93.41
16355;BME280;8287;51.644;8.494;2023-07-20T04:21:02;100109.22;;;18.76;93.85
16355;BME280;8287;51.644;8.494;2023-07-20T04:23:30;100117.22;;;18.73;93.70
16355;BME280;8287;51.644;8.494;2023-07-20T04:25:57;100114.94;;;18.71;93.86
16355;BME280;8287;51.644;8.494;2023-07-20T04:28:23;100112.94;;;18.68;94.63
16355;BME280;8287;51.644;8.494;2023-07-20T04:30:50;100119.50;;;18.71;94.80
16355;BME280;8287;51.644;8.494;2023-07-20T04:33:17;100110.31;;;18.72;94.93
16355;BME280;8287;51.644;8.494;2023-07-20T04:35:49;100112.66;;;18.73;94.76
16355;BME280;8287;51.644;8.494;2023-07-20T04:38:15;100118.75;;;18.70;94.67
16355;BME280;8287;51.644;8.494;2023-07-20T04:40:44;100115.63;;;18.68;95.15
16355;BME280;8287;51.644;8.494;2023-07-20T04:43:09;100117.91;;;18.66;95.06
16355;BME280;8287;51.644;8.494;2023-07-20T04:45:36;100124.13;;;18.70;94.90
16355;BME280;8287;51.644;8.494;2023-07-20T04:48:04;100132.53;;;18.69;94.70
16355;BME280;8287;51.644;8.494;2023-07-20T04:50:31;100138.69;;;18.73;94.94
16355;BME280;8287;51.644;8.494;2023-07-20T04:52:57;100141.38;;;18.69;94.95
16355;BME280;8287;51.644;8.494;2023-07-20T04:55:24;100142.41;;;18.65;95.53
16355;BME280;8287;51.644;8.494;2023-07-20T04:57:52;100150.84;;;18.63;96.23
16355;BME280;8287;51.644;8.494;2023-07-20T05:00:19;100153.03;;;18.54;96.60
16355;BME280;8287;51.644;8.494;2023-07-20T05:02:46;100153.44;;;18.56;97.80
16355;BME280;8287;51.644;8.494;2023-07-20T05:05:14;100139.94;;;18.53;97.76
16355;BME280;8287;51.644;8.494;2023-07-20T05:07:41;100144.59;;;18.56;97.22
16355;BME280;8287;51.644;8.494;2023-07-20T05:10:07;100155.66;;;18.51;97.43
16355;BME280;8287;51.644;8.494;2023-07-20T05:12:34;100151.41;;;18.50;96.94
16355;BME280;8287;51.644;8.494;2023-07-20T05:15:02;100158.34;;;18.51;97.45
16355;BME280;8287;51.644;8.494;2023-07-20T05:17:29;100161.41;;;18.53;97.12
16355;BME280;8287;51.644;8.494;2023-07-20T05:19:56;100159.03;;;18.48;96.82
16355;BME280;8287;51.644;8.494;2023-07-20T05:22:22;100165.25;;;18.52;96.45
16355;BME280;8287;51.644;8.494;2023-07-20T05:24:49;100163.69;;;18.51;96.35
16355;BME280;8287;51.644;8.494;2023-07-20T05:27:16;100165.59;;;18.50;95.32
16355;BME280;8287;51.644;8.494;2023-07-20T05:29:43;100166.25;;;18.44;95.41
16355;BME280;8287;51.644;8.494;2023-07-20T05:32:12;100162.31;;;18.38;95.64
16355;BME280;8287;51.644;8.494;2023-07-20T05:34:39;100161.91;;;18.36;94.96
16355;BME280;8287;51.644;8.494;2023-07-20T05:37:05;100158.09;;;18.37;94.95
16355;BME280;8287;51.644;8.494;2023-07-20T05:39:32;100168.13;;;18.40;94.60
16355;BME280;8287;51.644;8.494;2023-07-20T05:41:59;100171.16;;;18.38;94.19
16355;BME280;8287;51.644;8.494;2023-07-20T05:44:25;100167.63;;;18.12;96.32
16355;BME280;8287;51.644;8.494;2023-07-20T05:46:52;100174.44;;;18.28;96.69
16355;BME280;8287;51.644;8.494;2023-07-20T05:49:20;100178.31;;;18.31;96.24
16355;BME280;8287;51.644;8.494;2023-07-20T05:51:46;100182.25;;;18.37;95.64
16355;BME280;8287;51.644;8.494;2023-07-20T05:54:13;100181.03;;;18.34;96.38
16355;BME280;8287;51.644;8.494;2023-07-20T05:56:40;100192.22;;;18.36;96.35
16355;BME280;8287;51.644;8.494;2023-07-20T05:59:06;100189.16;;;18.38;96.39
16355;BME280;8287;51.644;8.494;2023-07-20T06:01:33;100177.34;;;18.20;97.31
16355;BME280;8287;51.644;8.494;2023-07-20T06:04:00;100184.72;;;18.26;98.20
16355;BME280;8287;51.644;8.494;2023-07-20T06:06:28;100180.41;;;18.41;97.38
16355;BME280;8287;51.644;8.494;2023-07-20T06:08:54;100193.97;;;18.51;96.81
16355;BME280;8287;51.644;8.494;2023-07-20T06:11:21;100202.94;;;18.59;95.97
16355;BME280;8287;51.644;8.494;2023-07-20T06:13:47;100209.44;;;18.58;95.51
16355;BME280;8287;51.644;8.494;2023-07-20T06:16:14;100212.94;;;18.62;93.96
16355;BME280;8287;51.644;8.494;2023-07-20T06:18:41;100209.38;;;18.32;92.88
16355;BME280;8287;51.644;8.494;2023-07-20T06:21:07;100218.88;;;18.07;95.68
16355;BME280;8287;51.644;8.494;2023-07-20T06:23:35;100211.94;;;18.06;96.87
16355;BME280;8287;51.644;8.494;2023-07-20T06:26:03;100219.94;;;18.02;97.42
16355;BME280;8287;51.644;8.494;2023-07-20T06:28:29;100227.56;;;18.23;96.23
16355;BME280;8287;51.644;8.494;2023-07-20T06:30:59;100215.81;;;17.67;96.08
16355;BME280;8287;51.644;8.494;2023-07-20T06:33:26;100207.97;;;17.39;99.96
16355;BME280;8287;51.644;8.494;2023-07-20T06:35:53;100208.19;;;17.69;98.98
16355;BME280;8287;51.644;8.494;2023-07-20T06:38:20;100222.72;;;17.49;99.19
16355;BME280;8287;51.644;8.494;2023-07-20T06:40:48;100215.94;;;17.74;99.38
16355;BME280;8287;51.644;8.494;2023-07-20T06:43:16;100215.50;;;17.91;100.00
16355;BME280;8287;51.644;8.494;2023-07-20T06:45:43;100219.75;;;17.73;98.61
16355;BME280;8287;51.644;8.494;2023-07-20T06:48:09;100215.88;;;17.70;100.00
16355;BME280;8287;51.644;8.494;2023-07-20T06:50:36;100215.50;;;18.32;96.83
16355;BME280;8287;51.644;8.494;2023-07-20T06:53:03;100217.25;;;18.02;97.54
16355;BME280;8287;51.644;8.494;2023-07-20T06:55:29;100226.09;;;17.84;95.63
16355;BME280;8287;51.644;8.494;2023-07-20T06:57:56;100231.63;;;18.13;95.74
16355;BME280;8287;51.644;8.494;2023-07-20T07:00:24;100232.84;;;18.16;94.56
16355;BME280;8287;51.644;8.494;2023-07-20T07:02:51;100231.13;;;17.85;93.46
16355;BME280;8287;51.644;8.494;2023-07-20T07:05:17;100230.59;;;17.80;92.70
16355;BME280;8287;51.644;8.494;2023-07-20T07:07:44;100237.16;;;17.82;90.57
16355;BME280;8287;51.644;8.494;2023-07-20T07:10:11;100241.81;;;18.04;92.60
16355;BME280;8287;51.644;8.494;2023-07-20T07:12:37;100246.28;;;17.59;92.31
16355;BME280;8287;51.644;8.494;2023-07-20T07:15:04;100245.97;;;18.02;94.54
16355;BME280;8287;51.644;8.494;2023-07-20T07:17:33;100234.75;;;18.38;95.64
16355;BME280;8287;51.644;8.494;2023-07-20T07:20:00;100250.41;;;18.81;92.75
16355;BME280;8287;51.644;8.494;2023-07-20T07:22:27;100256.53;;;19.04;89.62
16355;BME280;8287;51.644;8.494;2023-07-20T07:24:54;100256.41;;;19.19;87.92
16355;BME280;8287;51.644;8.494;2023-07-20T07:27:21;100255.75;;;19.26;85.51
16355;BME280;8287;51.644;8.494;2023-07-20T07:29:47;100257.25;;;19.23;83.38
16355;BME280;8287;51.644;8.494;2023-07-20T07:32:15;100258.44;;;19.26;82.54
16355;BME280;8287;51.644;8.494;2023-07-20T07:34:43;100262.13;;;19.18;83.45
16355;BME280;8287;51.644;8.494;2023-07-20T07:37:11;100263.91;;;19.10;84.10
16355;BME280;8287;51.644;8.494;2023-07-20T07:39:38;100270.38;;;19.06;84.33
16355;BME280;8287;51.644;8.494;2023-07-20T07:42:05;100272.84;;;19.40;84.26
16355;BME280;8287;51.644;8.494;2023-07-20T07:44:32;100272.69;;;19.30;83.16
16355;BME280;8287;51.644;8.494;2023-07-20T07:46:58;100278.56;;;19.39;82.52
16355;BME280;8287;51.644;8.494;2023-07-20T07:49:25;100277.41;;;19.69;81.72
16355;BME280;8287;51.644;8.494;2023-07-20T07:51:53;100289.84;;;19.22;77.29
16355;BME280;8287;51.644;8.494;2023-07-20T07:54:19;100291.31;;;18.71;80.39
16355;BME280;8287;51.644;8.494;2023-07-20T07:56:46;100281.06;;;19.25;83.81
16355;BME280;8287;51.644;8.494;2023-07-20T07:59:13;100282.22;;;19.53;82.65
16355;BME280;8287;51.644;8.494;2023-07-20T08:01:39;100287.13;;;19.48;79.57
16355;BME280;8287;51.644;8.494;2023-07-20T08:04:06;100280.31;;;20.16;77.88
16355;BME280;8287;51.644;8.494;2023-07-20T08:06:33;100276.91;;;20.23;76.36
16355;BME280;8287;51.644;8.494;2023-07-20T08:09:01;100281.91;;;20.21;75.64
16355;BME280;8287;51.644;8.494;2023-07-20T08:11:28;100286.22;;;20.29;73.16
16355;BME280;8287;51.644;8.494;2023-07-20T08:13:56;100291.53;;;20.22;72.27
16355;BME280;8287;51.644;8.494;2023-07-20T08:16:22;100278.22;;;20.03;73.77
16355;BME280;8287;51.644;8.494;2023-07-20T08:18:49;100280.69;;;20.15;73.46
16355;BME280;8287;51.644;8.494;2023-07-20T08:21:15;100294.06;;;19.49;69.49
16355;BME280;8287;51.644;8.494;2023-07-20T08:23:42;100287.03;;;20.00;70.95
16355;BME280;8287;51.644;8.494;2023-07-20T08:26:10;100294.09;;;20.11;72.58
16355;BME280;8287;51.644;8.494;2023-07-20T08:28:37;100289.44;;;20.44;68.11
16355;BME280;8287;51.644;8.494;2023-07-20T08:31:05;100297.16;;;20.10;71.44
16355;BME280;8287;51.644;8.494;2023-07-20T08:33:32;100301.00;;;20.09;69.64
16355;BME280;8287;51.644;8.494;2023-07-20T08:36:00;100299.72;;;19.70;70.10
16355;BME280;8287;51.644;8.494;2023-07-20T08:38:28;100300.34;;;19.89;70.69
16355;BME280;8287;51.644;8.494;2023-07-20T08:40:55;100319.66;;;19.39;72.57
16355;BME280;8287;51.644;8.494;2023-07-20T08:43:23;100309.81;;;19.80;74.28
16355;BME280;8287;51.644;8.494;2023-07-20T08:45:52;100307.66;;;20.22;71.34
16355;BME280;8287;51.644;8.494;2023-07-20T08:48:20;100309.09;;;20.45;69.69
16355;BME280;8287;51.644;8.494;2023-07-20T08:50:47;100309.50;;;20.14;66.19
16355;BME280;8287;51.644;8.494;2023-07-20T08:53:15;100310.22;;;20.08;66.10
16355;BME280;8287;51.644;8.494;2023-07-20T08:55:44;100310.22;;;20.08;67.68
16355;BME280;8287;51.644;8.494;2023-07-20T08:58:12;100306.59;;;20.69;68.15
16355;BME280;8287;51.644;8.494;2023-07-20T09:00:41;100316.41;;;20.12;65.30
16355;BME280;8287;51.644;8.494;2023-07-20T09:03:08;100312.31;;;20.64;66.84
16355;BME280;8287;51.644;8.494;2023-07-20T09:05:35;100326.06;;;20.52;67.42
16355;BME280;8287;51.644;8.494;2023-07-20T09:08:02;100310.84;;;20.70;67.04
16355;BME280;8287;51.644;8.494;2023-07-20T09:10:29;100313.31;;;20.86;65.37
16355;BME280;8287;51.644;8.494;2023-07-20T09:12:56;100316.16;;;21.03;67.49
16355;BME280;8287;51.644;8.494;2023-07-20T09:15:23;100310.50;;;21.19;68.00
16355;BME280;8287;51.644;8.494;2023-07-20T09:17:51;100309.47;;;21.37;65.47
16355;BME280;8287;51.644;8.494;2023-07-20T09:20:19;100310.72;;;21.57;61.51
16355;BME280;8287;51.644;8.494;2023-07-20T09:22:46;100312.00;;;21.70;59.91
16355;BME280;8287;51.644;8.494;2023-07-20T09:25:16;100315.47;;;21.78;59.15
16355;BME280;8287;51.644;8.494;2023-07-20T09:27:44;100321.56;;;21.64;55.89
16355;BME280;8287;51.644;8.494;2023-07-20T09:30:11;100316.03;;;21.40;57.31
16355;BME280;8287;51.644;8.494;2023-07-20T09:32:39;100313.00;;;20.54;60.86
16355;BME280;8287;51.644;8.494;2023-07-20T09:35:14;100311.66;;;21.21;61.30
16355;BME280;8287;51.644;8.494;2023-07-20T09:37:46;100317.94;;;21.39;60.22
16355;BME280;8287;51.644;8.494;2023-07-20T09:40:15;100298.09;;;21.04;61.31
16355;BME280;8287;51.644;8.494;2023-07-20T09:42:43;100301.66;;;21.22;58.65
16355;BME280;8287;51.644;8.494;2023-07-20T09:45:10;100309.81;;;21.32;59.74
16355;BME280;8287;51.644;8.494;2023-07-20T09:47:37;100311.63;;;21.18;59.59
16355;BME280;8287;51.644;8.494;2023-07-20T09:50:05;100306.97;;;21.72;59.16
16355;BME280;8287;51.644;8.494;2023-07-20T09:52:37;100310.22;;;22.09;54.25
16355;BME280;8287;51.644;8.494;2023-07-20T09:55:05;100310.63;;;22.18;52.19
16355;BME280;8287;51.644;8.494;2023-07-20T09:57:35;100307.97;;;22.22;52.04
16355;BME280;8287;51.644;8.494;2023-07-20T10:00:04;100304.09;;;22.19;52.97
16355;BME280;8287;51.644;8.494;2023-07-20T10:02:41;100305.88;;;21.84;57.29
16355;BME280;8287;51.644;8.494;2023-07-20T10:05:11;100298.66;;;22.09;57.32
16355;BME280;8287;51.644;8.494;2023-07-20T10:07:44;100301.84;;;22.49;56.98
16355;BME280;8287;51.644;8.494;2023-07-20T10:10:14;100307.66;;;22.72;55.27
16355;BME280;8287;51.644;8.494;2023-07-20T10:12:42;100298.78;;;22.86;52.82
16355;BME280;8287;51.644;8.494;2023-07-20T10:15:12;100303.44;;;22.75;52.51
16355;BME280;8287;51.644;8.494;2023-07-20T10:17:47;100304.19;;;22.65;52.35
16355;BME280;8287;51.644;8.494;2023-07-20T10:20:16;100312.69;;;22.63;51.84
16355;BME280;8287;51.644;8.494;2023-07-20T10:22:45;100299.94;;;22.71;51.51
16355;BME280;8287;51.644;8.494;2023-07-20T10:25:14;100298.78;;;22.82;50.60
16355;BME280;8287;51.644;8.494;2023-07-20T10:27:41;100305.66;;;22.27;52.81
16355;BME280;8287;51.644;8.494;2023-07-20T10:30:09;100302.53;;;22.11;53.47
16355;BME280;8287;51.644;8.494;2023-07-20T10:32:35;100298.25;;;22.07;57.25
16355;BME280;8287;51.644;8.494;2023-07-20T10:35:12;100307.09;;;21.93;54.22
16355;BME280;8287;51.644;8.494;2023-07-20T10:37:54;100292.53;;;22.29;57.21
16355;BME280;8287;51.644;8.494;2023-07-20T10:40:25;100301.88;;;22.60;51.79
16355;BME280;8287;51.644;8.494;2023-07-20T10:42:56;100292.63;;;22.78;52.04
16355;BME280;8287;51.644;8.494;2023-07-20T10:45:33;100295.31;;;22.99;50.61
16355;BME280;8287;51.644;8.494;2023-07-20T10:48:03;100298.38;;;23.08;50.72
16355;BME280;8287;51.644;8.494;2023-07-20T10:50:29;100287.97;;;23.10;51.94
16355;BME280;8287;51.644;8.494;2023-07-20T10:53:10;100290.28;;;23.33;48.38
16355;BME280;8287;51.644;8.494;2023-07-20T10:55:37;100287.13;;;23.48;47.80
16355;BME280;8287;51.644;8.494;2023-07-20T10:58:08;100296.38;;;23.61;48.42
16355;BME280;8287;51.644;8.494;2023-07-20T11:00:36;100285.56;;;23.61;49.00
16355;BME280;8287;51.644;8.494;2023-07-20T11:03:02;100294.03;;;23.70;50.18
16355;BME280;8287;51.644;8.494;2023-07-20T11:05:33;100293.22;;;23.87;47.68
16355;BME280;8287;51.644;8.494;2023-07-20T11:08:02;100297.47;;;23.78;48.33
16355;BME280;8287;51.644;8.494;2023-07-20T11:10:31;100293.22;;;23.80;45.72
16355;BME280;8287;51.644;8.494;2023-07-20T11:13:16;100287.03;;;23.76;46.14
16355;BME280;8287;51.644;8.494;2023-07-20T11:15:47;100287.56;;;23.08;44.58
16355;BME280;8287;51.644;8.494;2023-07-20T11:18:14;100282.97;;;23.23;48.23
16355;BME280;8287;51.644;8.494;2023-07-20T11:20:41;100278.72;;;23.04;49.05
16355;BME280;8287;51.644;8.494;2023-07-20T11:23:09;100287.84;;;23.73;49.26
16355;BME280;8287;51.644;8.494;2023-07-20T11:25:40;100274.88;;;24.19;46.99
16355;BME280;8287;51.644;8.494;2023-07-20T11:28:14;100271.19;;;24.50;47.35
16355;BME280;8287;51.644;8.494;2023-07-20T11:30:41;100268.66;;;24.80;47.48
16355;BME280;8287;51.644;8.494;2023-07-20T11:33:08;100270.91;;;24.34;46.32
16355;BME280;8287;51.644;8.494;2023-07-20T11:35:35;100275.13;;;24.93;44.01
16355;BME280;8287;51.644;8.494;2023-07-20T11:38:03;100263.16;;;24.90;46.26
16355;BME280;8287;51.644;8.494;2023-07-20T11:40:29;100263.66;;;25.19;43.80
16355;BME280;8287;51.644;8.494;2023-07-20T11:42:57;100258.06;;;25.36;43.42
16355;BME280;8287;51.644;8.494;2023-07-20T11:45:25;100255.66;;;25.42;42.63
16355;BME280;8287;51.644;8.494;2023-07-20T11:47:52;100253.34;;;25.44;44.91
16355;BME280;8287;51.644;8.494;2023-07-20T11:50:19;100252.31;;;25.31;43.29
16355;BME280;8287;51.644;8.494;2023-07-20T11:52:46;100254.38;;;25.53;41.24
16355;BME280;8287;51.644;8.494;2023-07-20T11:55:13;100249.00;;;24.15;42.27
16355;BME280;8287;51.644;8.494;2023-07-20T11:57:39;100247.53;;;24.61;45.62
16355;BME280;8287;51.644;8.494;2023-07-20T12:00:09;100246.81;;;25.38;42.40
16355;BME280;8287;51.644;8.494;2023-07-20T12:02:37;100246.06;;;24.93;44.33
16355;BME280;8287;51.644;8.494;2023-07-20T12:05:05;100248.53;;;25.55;42.37
16355;BME280;8287;51.644;8.494;2023-07-20T12:07:36;100250.19;;;25.79;41.75
16355;BME280;8287;51.644;8.494;2023-07-20T12:10:06;100243.03;;;25.92;41.82
16355;BME280;8287;51.644;8.494;2023-07-20T12:12:33;100234.66;;;26.09;41.68
16355;BME280;8287;51.644;8.494;2023-07-20T12:15:15;100240.41;;;26.15;41.01
16355;BME280;8287;51.644;8.494;2023-07-20T12:17:43;100238.66;;;26.01;38.16
16355;BME280;8287;51.644;8.494;2023-07-20T12:20:10;100245.38;;;26.20;39.33
16355;BME280;8287;51.644;8.494;2023-07-20T12:22:38;100239.00;;;26.30;40.81
16355;BME280;8287;51.644;8.494;2023-07-20T12:25:05;100235.72;;;26.42;38.89
16355;BME280;8287;51.644;8.494;2023-07-20T12:27:32;100241.81;;;26.49;40.88
16355;BME280;8287;51.644;8.494;2023-07-20T12:29:58;100236.34;;;26.00;37.11
16355;BME280;8287;51.644;8.494;2023-07-20T12:32:26;100239.44;;;24.54;40.40
16355;BME280;8287;51.644;8.494;2023-07-20T12:34:53;100235.41;;;24.18;42.76
16355;BME280;8287;51.644;8.494;2023-07-20T12:37:19;100230.84;;;25.43;43.79
16355;BME280;8287;51.644;8.494;2023-07-20T12:39:46;100237.38;;;26.09;39.52
16355;BME280;8287;51.644;8.494;2023-07-20T12:42:13;100232.41;;;26.31;39.53
16355;BME280;8287;51.644;8.494;2023-07-20T12:44:40;100227.50;;;26.45;40.33
16355;BME280;8287;51.644;8.494;2023-07-20T12:47:07;100235.16;;;26.77;40.43
16355;BME280;8287;51.644;8.494;2023-07-20T12:49:35;100239.72;;;27.03;39.51
16355;BME280;8287;51.644;8.494;2023-07-20T12:52:01;100228.91;;;27.22;39.01
16355;BME280;8287;51.644;8.494;2023-07-20T12:54:28;100227.59;;;26.65;38.40
16355;BME280;8287;51.644;8.494;2023-07-20T12:56:55;100229.97;;;25.50;38.78
16355;BME280;8287;51.644;8.494;2023-07-20T12:59:21;100223.38;;;25.17;42.37
16355;BME280;8287;51.644;8.494;2023-07-20T13:01:48;100215.50;;;25.93;42.15
16355;BME280;8287;51.644;8.494;2023-07-20T13:04:14;100214.47;;;25.80;42.37